Assembly Point, NY

5:38 PM EDT on August 22, 2014 (GMT -0400)
Mohawk Mountain Road, Lake George, NY | Change Station
CLOSE
Current Station
Personal Weather Station
Location: Lake George, NY
Elevation: 942 ft
Nearby Weather Stations

Elev 942 ft 43.39 °N, 73.73 °W | Updated 13 minutes ago

Overcast
Overcast
61.2 °F
Feels Like 61.2 °F
N
0.0
Wind Variable Wind from SSW

Today
High -- | Low -- °F
--% Chance of Precip.
Yesterday
High -- | Low -- °F
Precip. -- in
6:07 AM 7:46 PM
Waning Crescent, 6% visible
Pressure 30.10 in
Visibility 10.0 miles
Clouds Overcast 5500 ft
Dew Point 60 °F
Humidity 94%
Rainfall 0.18 in
Snow Depth Not available.
UV 1 out of 12
Pollen 3.80 out of 12
Air Quality Not available.
Flu Activity Not available.
METAR KRUT 222135Z 16004KT 10SM OVC055 18/14 A3010 RMK AO1

More Conditions Fewer Conditions

Pressure 30.10 in
Visibility 10.0 miles
Clouds Overcast 5500 ft
Dew Point 60 °F
Humidity 94%
Rainfall 0.18 in
Snow Depth Not available.
UV 1 out of 12
Pollen 3.80 out of 12
Air Quality Not available.
Flu Activity Not available.
METAR KRUT 222135Z 16004KT 10SM OVC055 18/14 A3010 RMK AO1

More Conditions Fewer Conditions

10-Day Weather Forecast

Almanac

Astronomy

Aug. 22, 2014 Rise Set
Actual Time 6:07 AM EDT 7:46 PM EDT
Civil Twilight 5:37 AM EDT 8:17 PM EDT
Nautical Twilight 5:00 AM EDT 8:53 PM EDT
Astronomical Twilight 4:21 AM EDT 9:32 PM EDT
Moon 3:25 AM EDT 5:55 PM EDT
Length of Visible Light 14h 39m
Length of Day
13h 39m
Tomorrow will be 2m 45s shorter.
Waning Crescent, 6% of the Moon is Illuminated
Today
Waning Crescent
Aug 25
New
Sep 2
First Quarter
Sep 8
Full
Sep 15
Last Quarter

Today's Extremes

State Highs State Lows

Community

WunderPhotos

Upload Photos

1,746,259 photos uploaded!

Nearby

Air Quality

  Air Quality AQ Index Pollutant
Friday Good
OZONE
Friday Good
PM2.5
Saturday Good
OZONE
Saturday Good
PM2.5
Sunday Good
OZONE
Sunday Good
PM2.5
Monday Good
OZONE
Monday Good
PM2.5

Snow Depth

Station Depth Elevation
No new snow has been reported.

Earthquake Activity

City Distance Mag. Time & Date
No recent earthquake activity has been reported nearby.
Minimum magnitude displayed is 2.5.

Coastal Water Temperatures

Place Temperature
No Stations Reporting

Nearby Weather Stations